sensor_id;sensor_type;location;lat;lon;timestamp;P1;durP1;ratioP1;P2;durP2;ratioP2
31724;SDS011;18306;40.960;14.836;2023-07-13T00:00:10;15.57;;;5.10;;
31724;SDS011;18306;40.960;14.836;2023-07-13T00:02:42;9.80;;;5.10;;
31724;SDS011;18306;40.960;14.836;2023-07-13T00:05:09;7.82;;;5.00;;
31724;SDS011;18306;40.960;14.836;2023-07-13T00:07:36;10.18;;;4.95;;
31724;SDS011;18306;40.960;14.836;2023-07-13T00:10:03;12.05;;;5.95;;
31724;SDS011;18306;40.960;14.836;2023-07-13T00:12:32;7.65;;;4.80;;
31724;SDS011;18306;40.960;14.836;2023-07-13T00:15:02;9.00;;;5.72;;
31724;SDS011;18306;40.960;14.836;2023-07-13T00:17:32;15.55;;;5.28;;
31724;SDS011;18306;40.960;14.836;2023-07-13T00:19:59;9.30;;;5.80;;
31724;SDS011;18306;40.960;14.836;2023-07-13T00:22:26;13.57;;;5.65;;
31724;SDS011;18306;40.960;14.836;2023-07-13T00:24:53;10.13;;;5.45;;
31724;SDS011;18306;40.960;14.836;2023-07-13T00:27:24;8.27;;;5.35;;
31724;SDS011;18306;40.960;14.836;2023-07-13T00:29:56;8.15;;;5.40;;
31724;SDS011;18306;40.960;14.836;2023-07-13T00:32:23;9.27;;;5.15;;
31724;SDS011;18306;40.960;14.836;2023-07-13T00:34:52;12.43;;;6.10;;
31724;SDS011;18306;40.960;14.836;2023-07-13T00:37:19;8.05;;;4.60;;
31724;SDS011;18306;40.960;14.836;2023-07-13T00:39:46;9.95;;;5.20;;
31724;SDS011;18306;40.960;14.836;2023-07-13T00:42:13;6.03;;;4.50;;
31724;SDS011;18306;40.960;14.836;2023-07-13T00:44:41;7.72;;;5.00;;
31724;SDS011;18306;40.960;14.836;2023-07-13T00:47:26;9.60;;;5.68;;
31724;SDS011;18306;40.960;14.836;2023-07-13T00:49:53;8.57;;;5.75;;
31724;SDS011;18306;40.960;14.836;2023-07-13T00:52:20;11.57;;;5.65;;
31724;SDS011;18306;40.960;14.836;2023-07-13T00:54:47;8.70;;;5.45;;
31724;SDS011;18306;40.960;14.836;2023-07-13T00:57:15;8.45;;;5.13;;
31724;SDS011;18306;40.960;14.836;2023-07-13T00:59:46;10.02;;;5.22;;
31724;SDS011;18306;40.960;14.836;2023-07-13T01:02:17;12.73;;;6.53;;
31724;SDS011;18306;40.960;14.836;2023-07-13T01:04:44;10.05;;;5.90;;
31724;SDS011;18306;40.960;14.836;2023-07-13T01:07:11;7.90;;;5.38;;
31724;SDS011;18306;40.960;14.836;2023-07-13T01:09:39;16.67;;;6.88;;
31724;SDS011;18306;40.960;14.836;2023-07-13T01:12:06;16.98;;;7.18;;
31724;SDS011;18306;40.960;14.836;2023-07-13T01:14:34;8.05;;;6.18;;
31724;SDS011;18306;40.960;14.836;2023-07-13T01:17:01;11.60;;;5.68;;
31724;SDS011;18306;40.960;14.836;2023-07-13T01:19:33;7.70;;;5.22;;
31724;SDS011;18306;40.960;14.836;2023-07-13T01:22:09;7.93;;;4.93;;
31724;SDS011;18306;40.960;14.836;2023-07-13T01:24:39;7.15;;;4.88;;
31724;SDS011;18306;40.960;14.836;2023-07-13T01:27:09;14.20;;;5.43;;
31724;SDS011;18306;40.960;14.836;2023-07-13T01:29:40;7.75;;;5.20;;
31724;SDS011;18306;40.960;14.836;2023-07-13T01:32:10;12.48;;;5.30;;
31724;SDS011;18306;40.960;14.836;2023-07-13T01:34:42;10.98;;;5.03;;
31724;SDS011;18306;40.960;14.836;2023-07-13T01:37:11;7.90;;;4.93;;
31724;SDS011;18306;40.960;14.836;2023-07-13T01:39:38;7.20;;;5.00;;
31724;SDS011;18306;40.960;14.836;2023-07-13T01:42:05;6.47;;;4.78;;
31724;SDS011;18306;40.960;14.836;2023-07-13T01:44:33;7.40;;;4.75;;
31724;SDS011;18306;40.960;14.836;2023-07-13T01:47:00;6.68;;;4.63;;
31724;SDS011;18306;40.960;14.836;2023-07-13T01:49:27;7.05;;;3.88;;
31724;SDS011;18306;40.960;14.836;2023-07-13T01:51:54;8.02;;;4.30;;
31724;SDS011;18306;40.960;14.836;2023-07-13T01:54:21;7.65;;;4.20;;
31724;SDS011;18306;40.960;14.836;2023-07-13T01:56:50;8.40;;;5.13;;
31724;SDS011;18306;40.960;14.836;2023-07-13T01:59:17;10.48;;;4.43;;
31724;SDS011;18306;40.960;14.836;2023-07-13T02:01:44;7.28;;;4.15;;
31724;SDS011;18306;40.960;14.836;2023-07-13T02:04:11;9.48;;;4.55;;
31724;SDS011;18306;40.960;14.836;2023-07-13T02:06:38;5.40;;;3.70;;
31724;SDS011;18306;40.960;14.836;2023-07-13T02:09:05;5.95;;;4.07;;
31724;SDS011;18306;40.960;14.836;2023-07-13T02:11:32;6.63;;;3.88;;
31724;SDS011;18306;40.960;14.836;2023-07-13T02:14:00;8.38;;;4.82;;
31724;SDS011;18306;40.960;14.836;2023-07-13T02:16:28;5.32;;;3.50;;
31724;SDS011;18306;40.960;14.836;2023-07-13T02:18:56;13.18;;;3.88;;
31724;SDS011;18306;40.960;14.836;2023-07-13T02:21:23;5.05;;;3.70;;
31724;SDS011;18306;40.960;14.836;2023-07-13T02:23:51;7.50;;;3.70;;
31724;SDS011;18306;40.960;14.836;2023-07-13T02:26:18;6.20;;;4.03;;
31724;SDS011;18306;40.960;14.836;2023-07-13T02:28:47;7.53;;;4.53;;
31724;SDS011;18306;40.960;14.836;2023-07-13T02:31:15;12.23;;;4.68;;
31724;SDS011;18306;40.960;14.836;2023-07-13T02:33:42;8.75;;;4.82;;
31724;SDS011;18306;40.960;14.836;2023-07-13T02:36:11;7.90;;;4.47;;
31724;SDS011;18306;40.960;14.836;2023-07-13T02:38:40;10.93;;;4.55;;
31724;SDS011;18306;40.960;14.836;2023-07-13T02:41:08;7.55;;;3.53;;
31724;SDS011;18306;40.960;14.836;2023-07-13T02:43:36;14.20;;;5.03;;
31724;SDS011;18306;40.960;14.836;2023-07-13T02:46:03;11.70;;;5.20;;
31724;SDS011;18306;40.960;14.836;2023-07-13T02:48:36;8.60;;;4.53;;
31724;SDS011;18306;40.960;14.836;2023-07-13T02:51:03;7.20;;;5.03;;
31724;SDS011;18306;40.960;14.836;2023-07-13T02:53:31;7.35;;;4.72;;
31724;SDS011;18306;40.960;14.836;2023-07-13T02:55:58;12.13;;;4.72;;
31724;SDS011;18306;40.960;14.836;2023-07-13T02:58:25;9.52;;;4.45;;
31724;SDS011;18306;40.960;14.836;2023-07-13T03:00:52;5.15;;;4.22;;
31724;SDS011;18306;40.960;14.836;2023-07-13T03:03:19;6.80;;;4.38;;
31724;SDS011;18306;40.960;14.836;2023-07-13T03:05:47;7.30;;;4.82;;
31724;SDS011;18306;40.960;14.836;2023-07-13T03:08:23;7.40;;;4.68;;
31724;SDS011;18306;40.960;14.836;2023-07-13T03:11:02;6.50;;;4.78;;
31724;SDS011;18306;40.960;14.836;2023-07-13T03:13:34;12.32;;;4.63;;
31724;SDS011;18306;40.960;14.836;2023-07-13T03:16:03;6.50;;;4.63;;
31724;SDS011;18306;40.960;14.836;2023-07-13T03:18:31;7.60;;;4.85;;
31724;SDS011;18306;40.960;14.836;2023-07-13T03:21:03;11.23;;;5.38;;
31724;SDS011;18306;40.960;14.836;2023-07-13T03:23:30;8.95;;;4.78;;
31724;SDS011;18306;40.960;14.836;2023-07-13T03:26:06;8.70;;;4.68;;
31724;SDS011;18306;40.960;14.836;2023-07-13T03:28:42;13.90;;;5.32;;
31724;SDS011;18306;40.960;14.836;2023-07-13T03:31:17;7.40;;;4.40;;
31724;SDS011;18306;40.960;14.836;2023-07-13T03:33:46;9.53;;;5.37;;
31724;SDS011;18306;40.960;14.836;2023-07-13T03:36:16;9.20;;;4.85;;
31724;SDS011;18306;40.960;14.836;2023-07-13T03:38:50;7.93;;;4.55;;
31724;SDS011;18306;40.960;14.836;2023-07-13T03:41:23;5.95;;;4.20;;
31724;SDS011;18306;40.960;14.836;2023-07-13T03:43:53;5.28;;;4.05;;
31724;SDS011;18306;40.960;14.836;2023-07-13T03:46:22;8.52;;;4.78;;
31724;SDS011;18306;40.960;14.836;2023-07-13T03:48:49;10.38;;;4.85;;
31724;SDS011;18306;40.960;14.836;2023-07-13T03:51:18;6.82;;;4.78;;
31724;SDS011;18306;40.960;14.836;2023-07-13T03:53:53;9.43;;;4.70;;
31724;SDS011;18306;40.960;14.836;2023-07-13T03:59:26;13.32;;;4.93;;
31724;SDS011;18306;40.960;14.836;2023-07-13T04:02:02;7.45;;;5.28;;
31724;SDS011;18306;40.960;14.836;2023-07-13T04:04:36;11.93;;;4.20;;
31724;SDS011;18306;40.960;14.836;2023-07-13T04:07:10;9.00;;;5.13;;
31724;SDS011;18306;40.960;14.836;2023-07-13T04:09:39;11.55;;;5.53;;
31724;SDS011;18306;40.960;14.836;2023-07-13T04:12:06;12.85;;;5.90;;
31724;SDS011;18306;40.960;14.836;2023-07-13T04:14:34;11.65;;;5.53;;
31724;SDS011;18306;40.960;14.836;2023-07-13T04:17:00;7.25;;;4.57;;
31724;SDS011;18306;40.960;14.836;2023-07-13T04:19:28;5.70;;;4.78;;
31724;SDS011;18306;40.960;14.836;2023-07-13T04:21:55;7.68;;;4.60;;
31724;SDS011;18306;40.960;14.836;2023-07-13T04:24:22;9.32;;;5.43;;
31724;SDS011;18306;40.960;14.836;2023-07-13T04:26:49;9.95;;;5.03;;
31724;SDS011;18306;40.960;14.836;2023-07-13T04:29:16;8.02;;;5.65;;
31724;SDS011;18306;40.960;14.836;2023-07-13T04:31:42;6.95;;;4.90;;
31724;SDS011;18306;40.960;14.836;2023-07-13T04:34:09;6.25;;;4.47;;
31724;SDS011;18306;40.960;14.836;2023-07-13T04:36:36;6.28;;;4.40;;
31724;SDS011;18306;40.960;14.836;2023-07-13T04:39:04;8.50;;;4.35;;
31724;SDS011;18306;40.960;14.836;2023-07-13T04:41:31;5.60;;;4.20;;
31724;SDS011;18306;40.960;14.836;2023-07-13T04:43:58;9.63;;;4.47;;
31724;SDS011;18306;40.960;14.836;2023-07-13T04:46:25;7.53;;;4.28;;
31724;SDS011;18306;40.960;14.836;2023-07-13T04:48:52;5.72;;;4.32;;
31724;SDS011;18306;40.960;14.836;2023-07-13T04:51:19;6.13;;;4.20;;
31724;SDS011;18306;40.960;14.836;2023-07-13T04:53:46;14.73;;;6.47;;
31724;SDS011;18306;40.960;14.836;2023-07-13T04:56:13;9.40;;;4.78;;
31724;SDS011;18306;40.960;14.836;2023-07-13T04:58:40;12.52;;;5.25;;
31724;SDS011;18306;40.960;14.836;2023-07-13T05:01:09;6.90;;;4.43;;
31724;SDS011;18306;40.960;14.836;2023-07-13T05:03:36;11.30;;;4.30;;
31724;SDS011;18306;40.960;14.836;2023-07-13T05:06:04;15.48;;;6.13;;
31724;SDS011;18306;40.960;14.836;2023-07-13T05:08:33;11.93;;;5.80;;
31724;SDS011;18306;40.960;14.836;2023-07-13T05:11:01;9.05;;;5.97;;
31724;SDS011;18306;40.960;14.836;2023-07-13T05:13:30;9.80;;;5.93;;
31724;SDS011;18306;40.960;14.836;2023-07-13T05:16:01;10.50;;;5.53;;
31724;SDS011;18306;40.960;14.836;2023-07-13T05:18:29;10.00;;;6.03;;
31724;SDS011;18306;40.960;14.836;2023-07-13T05:21:01;12.43;;;5.75;;
31724;SDS011;18306;40.960;14.836;2023-07-13T05:23:30;12.70;;;6.25;;
31724;SDS011;18306;40.960;14.836;2023-07-13T05:26:03;16.98;;;6.28;;
31724;SDS011;18306;40.960;14.836;2023-07-13T05:28:30;12.05;;;7.00;;
31724;SDS011;18306;40.960;14.836;2023-07-13T05:30:58;12.98;;;6.55;;
31724;SDS011;18306;40.960;14.836;2023-07-13T05:33:25;11.93;;;4.55;;
31724;SDS011;18306;40.960;14.836;2023-07-13T05:35:53;12.07;;;5.10;;
31724;SDS011;18306;40.960;14.836;2023-07-13T05:38:20;10.15;;;6.13;;
31724;SDS011;18306;40.960;14.836;2023-07-13T05:40:48;12.18;;;6.25;;
31724;SDS011;18306;40.960;14.836;2023-07-13T05:43:16;9.40;;;6.13;;
31724;SDS011;18306;40.960;14.836;2023-07-13T05:45:43;7.30;;;5.13;;
31724;SDS011;18306;40.960;14.836;2023-07-13T05:48:10;8.70;;;5.20;;
31724;SDS011;18306;40.960;14.836;2023-07-13T05:50:37;10.20;;;5.85;;
31724;SDS011;18306;40.960;14.836;2023-07-13T05:53:04;10.68;;;4.90;;
31724;SDS011;18306;40.960;14.836;2023-07-13T05:55:31;10.35;;;5.95;;
31724;SDS011;18306;40.960;14.836;2023-07-13T05:57:58;12.10;;;5.75;;
31724;SDS011;18306;40.960;14.836;2023-07-13T06:00:26;10.27;;;5.25;;
31724;SDS011;18306;40.960;14.836;2023-07-13T06:02:53;13.88;;;6.20;;
31724;SDS011;18306;40.960;14.836;2023-07-13T06:05:22;7.72;;;5.32;;
31724;SDS011;18306;40.960;14.836;2023-07-13T06:07:49;11.13;;;5.60;;
31724;SDS011;18306;40.960;14.836;2023-07-13T06:10:15;9.07;;;5.43;;
31724;SDS011;18306;40.960;14.836;2023-07-13T06:12:43;18.75;;;5.97;;
31724;SDS011;18306;40.960;14.836;2023-07-13T06:15:09;10.93;;;6.20;;
31724;SDS011;18306;40.960;14.836;2023-07-13T06:17:38;8.98;;;5.45;;
31724;SDS011;18306;40.960;14.836;2023-07-13T06:20:05;7.15;;;5.10;;
31724;SDS011;18306;40.960;14.836;2023-07-13T06:22:32;12.15;;;5.18;;
31724;SDS011;18306;40.960;14.836;2023-07-13T06:24:59;13.20;;;4.82;;
31724;SDS011;18306;40.960;14.836;2023-07-13T06:27:26;8.90;;;5.13;;
31724;SDS011;18306;40.960;14.836;2023-07-13T06:29:53;13.73;;;5.63;;
31724;SDS011;18306;40.960;14.836;2023-07-13T06:32:20;9.77;;;4.93;;
31724;SDS011;18306;40.960;14.836;2023-07-13T06:34:47;8.63;;;5.70;;
31724;SDS011;18306;40.960;14.836;2023-07-13T06:37:14;9.32;;;4.72;;
31724;SDS011;18306;40.960;14.836;2023-07-13T06:39:41;7.35;;;3.70;;
31724;SDS011;18306;40.960;14.836;2023-07-13T06:42:08;7.78;;;3.88;;
31724;SDS011;18306;40.960;14.836;2023-07-13T06:44:35;10.63;;;5.50;;
31724;SDS011;18306;40.960;14.836;2023-07-13T06:47:03;13.07;;;4.13;;
31724;SDS011;18306;40.960;14.836;2023-07-13T06:49:30;4.93;;;3.45;;
31724;SDS011;18306;40.960;14.836;2023-07-13T06:51:57;11.27;;;4.03;;
31724;SDS011;18306;40.960;14.836;2023-07-13T06:54:24;7.47;;;3.55;;
31724;SDS011;18306;40.960;14.836;2023-07-13T06:56:51;11.43;;;3.30;;
31724;SDS011;18306;40.960;14.836;2023-07-13T06:59:18;6.50;;;3.88;;
31724;SDS011;18306;40.960;14.836;2023-07-13T07:01:45;3.90;;;2.97;;
31724;SDS011;18306;40.960;14.836;2023-07-13T07:04:12;7.15;;;2.65;;
31724;SDS011;18306;40.960;14.836;2023-07-13T07:06:39;3.67;;;2.55;;
31724;SDS011;18306;40.960;14.836;2023-07-13T07:09:06;9.10;;;2.35;;
31724;SDS011;18306;40.960;14.836;2023-07-13T07:11:33;3.78;;;2.15;;
31724;SDS011;18306;40.960;14.836;2023-07-13T07:14:00;6.72;;;2.33;;
31724;SDS011;18306;40.960;14.836;2023-07-13T07:16:27;5.53;;;2.13;;
31724;SDS011;18306;40.960;14.836;2023-07-13T07:18:54;5.03;;;2.58;;
31724;SDS011;18306;40.960;14.836;2023-07-13T07:21:21;6.75;;;2.50;;
31724;SDS011;18306;40.960;14.836;2023-07-13T07:23:49;8.82;;;2.97;;
31724;SDS011;18306;40.960;14.836;2023-07-13T07:26:18;13.93;;;2.50;;
31724;SDS011;18306;40.960;14.836;2023-07-13T07:28:45;2.67;;;2.25;;
31724;SDS011;18306;40.960;14.836;2023-07-13T07:31:12;8.05;;;2.92;;
31724;SDS011;18306;40.960;14.836;2023-07-13T07:33:39;5.10;;;2.08;;
31724;SDS011;18306;40.960;14.836;2023-07-13T07:36:06;5.32;;;2.28;;
31724;SDS011;18306;40.960;14.836;2023-07-13T07:38:33;4.82;;;3.00;;
31724;SDS011;18306;40.960;14.836;2023-07-13T07:41:03;3.08;;;2.17;;
31724;SDS011;18306;40.960;14.836;2023-07-13T07:43:31;4.57;;;2.40;;
31724;SDS011;18306;40.960;14.836;2023-07-13T07:45:58;3.25;;;2.25;;
31724;SDS011;18306;40.960;14.836;2023-07-13T07:48:25;6.18;;;3.00;;
31724;SDS011;18306;40.960;14.836;2023-07-13T07:50:52;5.28;;;2.00;;
31724;SDS011;18306;40.960;14.836;2023-07-13T07:53:20;11.00;;;2.50;;
31724;SDS011;18306;40.960;14.836;2023-07-13T07:55:47;4.90;;;2.38;;
31724;SDS011;18306;40.960;14.836;2023-07-13T07:58:14;7.57;;;2.80;;
31724;SDS011;18306;40.960;14.836;2023-07-13T08:00:41;4.68;;;2.47;;
31724;SDS011;18306;40.960;14.836;2023-07-13T08:03:09;4.10;;;2.63;;
31724;SDS011;18306;40.960;14.836;2023-07-13T08:05:36;4.03;;;1.70;;
31724;SDS011;18306;40.960;14.836;2023-07-13T08:08:03;3.92;;;2.33;;
31724;SDS011;18306;40.960;14.836;2023-07-13T08:10:30;3.97;;;2.00;;
31724;SDS011;18306;40.960;14.836;2023-07-13T08:12:57;2.70;;;1.70;;
31724;SDS011;18306;40.960;14.836;2023-07-13T08:15:29;3.60;;;1.88;;
31724;SDS011;18306;40.960;14.836;2023-07-13T08:18:04;9.43;;;2.15;;
31724;SDS011;18306;40.960;14.836;2023-07-13T08:20:32;3.65;;;2.35;;
31724;SDS011;18306;40.960;14.836;2023-07-13T08:23:06;4.28;;;2.05;;
31724;SDS011;18306;40.960;14.836;2023-07-13T08:25:36;10.77;;;2.63;;
31724;SDS011;18306;40.960;14.836;2023-07-13T08:28:05;6.25;;;2.50;;
31724;SDS011;18306;40.960;14.836;2023-07-13T08:30:32;3.88;;;2.28;;
31724;SDS011;18306;40.960;14.836;2023-07-13T08:32:59;2.63;;;2.08;;
31724;SDS011;18306;40.960;14.836;2023-07-13T08:35:26;7.28;;;2.03;;
31724;SDS011;18306;40.960;14.836;2023-07-13T08:37:54;5.95;;;2.65;;
31724;SDS011;18306;40.960;14.836;2023-07-13T08:40:23;3.55;;;1.73;;
31724;SDS011;18306;40.960;14.836;2023-07-13T08:42:53;10.20;;;2.42;;
31724;SDS011;18306;40.960;14.836;2023-07-13T08:45:24;5.43;;;2.53;;
31724;SDS011;18306;40.960;14.836;2023-07-13T08:48:11;5.50;;;2.33;;
31724;SDS011;18306;40.960;14.836;2023-07-13T08:53:46;3.38;;;2.22;;
31724;SDS011;18306;40.960;14.836;2023-07-13T08:56:21;3.83;;;2.67;;
31724;SDS011;18306;40.960;14.836;2023-07-13T08:58:55;13.00;;;3.13;;
31724;SDS011;18306;40.960;14.836;2023-07-13T09:01:28;6.80;;;2.72;;
31724;SDS011;18306;40.960;14.836;2023-07-13T09:04:14;9.40;;;2.83;;
31724;SDS011;18306;40.960;14.836;2023-07-13T09:09:50;7.32;;;3.00;;
31724;SDS011;18306;40.960;14.836;2023-07-13T09:15:40;4.03;;;2.58;;
31724;SDS011;18306;40.960;14.836;2023-07-13T09:18:16;7.00;;;2.35;;
31724;SDS011;18306;40.960;14.836;2023-07-13T09:21:15;4.38;;;2.67;;
31724;SDS011;18306;40.960;14.836;2023-07-13T09:23:50;6.95;;;2.88;;
31724;SDS011;18306;40.960;14.836;2023-07-13T09:26:28;3.83;;;2.42;;
31724;SDS011;18306;40.960;14.836;2023-07-13T09:29:13;3.45;;;2.60;;
31724;SDS011;18306;40.960;14.836;2023-07-13T09:31:47;4.57;;;2.58;;
31724;SDS011;18306;40.960;14.836;2023-07-13T09:34:19;13.18;;;2.83;;
31724;SDS011;18306;40.960;14.836;2023-07-13T09:36:47;6.38;;;2.17;;
31724;SDS011;18306;40.960;14.836;2023-07-13T09:39:28;3.35;;;2.30;;
31724;SDS011;18306;40.960;14.836;2023-07-13T09:42:12;8.27;;;2.38;;
31724;SDS011;18306;40.960;14.836;2023-07-13T09:45:01;5.43;;;2.35;;
31724;SDS011;18306;40.960;14.836;2023-07-13T09:47:30;8.93;;;1.80;;
31724;SDS011;18306;40.960;14.836;2023-07-13T09:50:03;6.47;;;2.55;;
31724;SDS011;18306;40.960;14.836;2023-07-13T09:52:43;5.90;;;2.30;;
31724;SDS011;18306;40.960;14.836;2023-07-13T09:55:31;5.43;;;2.30;;
31724;SDS011;18306;40.960;14.836;2023-07-13T09:58:14;6.60;;;2.33;;
31724;SDS011;18306;40.960;14.836;2023-07-13T10:00:56;5.97;;;1.95;;
31724;SDS011;18306;40.960;14.836;2023-07-13T10:03:29;12.02;;;2.13;;
31724;SDS011;18306;40.960;14.836;2023-07-13T10:06:11;5.15;;;1.95;;
31724;SDS011;18306;40.960;14.836;2023-07-13T10:08:40;8.70;;;2.85;;
31724;SDS011;18306;40.960;14.836;2023-07-13T10:11:18;6.07;;;2.72;;
31724;SDS011;18306;40.960;14.836;2023-07-13T10:14:01;3.88;;;2.63;;
31724;SDS011;18306;40.960;14.836;2023-07-13T10:16:37;4.75;;;2.55;;
31724;SDS011;18306;40.960;14.836;2023-07-13T10:19:07;8.95;;;3.33;;
31724;SDS011;18306;40.960;14.836;2023-07-13T10:21:47;5.60;;;2.97;;
31724;SDS011;18306;40.960;14.836;2023-07-13T10:24:26;6.35;;;2.72;;
31724;SDS011;18306;40.960;14.836;2023-07-13T10:27:03;8.87;;;3.63;;
31724;SDS011;18306;40.960;14.836;2023-07-13T10:32:27;18.13;;;3.40;;
31724;SDS011;18306;40.960;14.836;2023-07-13T10:34:54;12.10;;;4.05;;
31724;SDS011;18306;40.960;14.836;2023-07-13T10:37:27;7.82;;;3.50;;
31724;SDS011;18306;40.960;14.836;2023-07-13T10:40:03;14.20;;;4.93;;
31724;SDS011;18306;40.960;14.836;2023-07-13T10:42:37;10.00;;;5.22;;
31724;SDS011;18306;40.960;14.836;2023-07-13T10:45:17;7.72;;;3.95;;
31724;SDS011;18306;40.960;14.836;2023-07-13T10:47:46;17.80;;;5.43;;
31724;SDS011;18306;40.960;14.836;2023-07-13T10:50:23;10.68;;;4.80;;
31724;SDS011;18306;40.960;14.836;2023-07-13T10:52:53;8.13;;;4.68;;
31724;SDS011;18306;40.960;14.836;2023-07-13T10:55:36;14.88;;;4.70;;
31724;SDS011;18306;40.960;14.836;2023-07-13T10:58:20;11.23;;;4.30;;
31724;SDS011;18306;40.960;14.836;2023-07-13T11:01:08;14.25;;;5.03;;
31724;SDS011;18306;40.960;14.836;2023-07-13T11:58:23;5.75;;;3.20;;
31724;SDS011;18306;40.960;14.836;2023-07-13T12:01:02;7.82;;;3.47;;
31724;SDS011;18306;40.960;14.836;2023-07-13T12:03:33;12.07;;;3.90;;
31724;SDS011;18306;40.960;14.836;2023-07-13T12:06:03;6.20;;;3.08;;
31724;SDS011;18306;40.960;14.836;2023-07-13T12:08:37;9.48;;;3.15;;
31724;SDS011;18306;40.960;14.836;2023-07-13T12:11:11;6.35;;;3.22;;
31724;SDS011;18306;40.960;14.836;2023-07-13T12:13:52;4.63;;;2.95;;
31724;SDS011;18306;40.960;14.836;2023-07-13T12:16:25;9.57;;;2.67;;
31724;SDS011;18306;40.960;14.836;2023-07-13T12:18:59;3.50;;;2.85;;
31724;SDS011;18306;40.960;14.836;2023-07-13T12:21:32;5.63;;;3.00;;
31724;SDS011;18306;40.960;14.836;2023-07-13T12:24:01;10.13;;;2.88;;
31724;SDS011;18306;40.960;14.836;2023-07-13T12:26:30;6.80;;;3.22;;
31724;SDS011;18306;40.960;14.836;2023-07-13T12:28:59;5.20;;;3.17;;
31724;SDS011;18306;40.960;14.836;2023-07-13T12:31:33;5.53;;;2.90;;
31724;SDS011;18306;40.960;14.836;2023-07-13T12:36:45;3.53;;;2.30;;
31724;SDS011;18306;40.960;14.836;2023-07-13T12:39:19;8.55;;;3.63;;
31724;SDS011;18306;40.960;14.836;2023-07-13T12:41:49;8.82;;;2.88;;
31724;SDS011;18306;40.960;14.836;2023-07-13T12:44:21;8.88;;;3.45;;
31724;SDS011;18306;40.960;14.836;2023-07-13T12:47:03;3.17;;;2.53;;
31724;SDS011;18306;40.960;14.836;2023-07-13T12:49:39;8.30;;;3.63;;
31724;SDS011;18306;40.960;14.836;2023-07-13T12:52:13;5.18;;;3.08;;
31724;SDS011;18306;40.960;14.836;2023-07-13T12:54:53;4.43;;;2.25;;
31724;SDS011;18306;40.960;14.836;2023-07-13T12:57:26;4.85;;;2.78;;
31724;SDS011;18306;40.960;14.836;2023-07-13T12:59:53;5.95;;;2.33;;
31724;SDS011;18306;40.960;14.836;2023-07-13T13:02:29;4.75;;;2.70;;
31724;SDS011;18306;40.960;14.836;2023-07-13T13:05:01;4.38;;;2.45;;
31724;SDS011;18306;40.960;14.836;2023-07-13T13:07:30;7.68;;;2.85;;
31724;SDS011;18306;40.960;14.836;2023-07-13T13:09:57;8.27;;;2.67;;
31724;SDS011;18306;40.960;14.836;2023-07-13T13:12:24;4.35;;;2.53;;
31724;SDS011;18306;40.960;14.836;2023-07-13T13:14:53;6.55;;;2.80;;
31724;SDS011;18306;40.960;14.836;2023-07-13T13:17:21;6.38;;;2.63;;
31724;SDS011;18306;40.960;14.836;2023-07-13T13:19:53;8.63;;;3.40;;
31724;SDS011;18306;40.960;14.836;2023-07-13T13:22:20;8.90;;;2.97;;
31724;SDS011;18306;40.960;14.836;2023-07-13T13:24:48;5.65;;;2.60;;
31724;SDS011;18306;40.960;14.836;2023-07-13T13:27:16;7.32;;;1.77;;
31724;SDS011;18306;40.960;14.836;2023-07-13T13:29:45;7.25;;;2.80;;
31724;SDS011;18306;40.960;14.836;2023-07-13T13:32:14;13.52;;;2.28;;
31724;SDS011;18306;40.960;14.836;2023-07-13T13:34:41;5.50;;;2.30;;
31724;SDS011;18306;40.960;14.836;2023-07-13T13:37:27;4.70;;;2.33;;
31724;SDS011;18306;40.960;14.836;2023-07-13T13:39:53;8.10;;;2.63;;
31724;SDS011;18306;40.960;14.836;2023-07-13T13:42:21;6.45;;;2.90;;
31724;SDS011;18306;40.960;14.836;2023-07-13T13:44:50;3.55;;;2.30;;
31724;SDS011;18306;40.960;14.836;2023-07-13T13:47:31;7.68;;;2.60;;
31724;SDS011;18306;40.960;14.836;2023-07-13T13:49:59;4.07;;;2.38;;
31724;SDS011;18306;40.960;14.836;2023-07-13T13:52:26;3.40;;;2.42;;
31724;SDS011;18306;40.960;14.836;2023-07-13T13:54:53;6.43;;;2.28;;
31724;SDS011;18306;40.960;14.836;2023-07-13T13:57:22;4.47;;;2.17;;
31724;SDS011;18306;40.960;14.836;2023-07-13T13:59:51;3.00;;;1.95;;
31724;SDS011;18306;40.960;14.836;2023-07-13T14:02:26;4.60;;;2.67;;
31724;SDS011;18306;40.960;14.836;2023-07-13T14:04:56;3.65;;;2.67;;
31724;SDS011;18306;40.960;14.836;2023-07-13T14:07:25;5.93;;;2.63;;
31724;SDS011;18306;40.960;14.836;2023-07-13T14:09:54;4.75;;;2.80;;
31724;SDS011;18306;40.960;14.836;2023-07-13T14:12:23;4.43;;;2.08;;
31724;SDS011;18306;40.960;14.836;2023-07-13T14:14:57;5.30;;;2.33;;
31724;SDS011;18306;40.960;14.836;2023-07-13T14:17:25;4.25;;;2.22;;
31724;SDS011;18306;40.960;14.836;2023-07-13T14:19:54;3.63;;;2.20;;
31724;SDS011;18306;40.960;14.836;2023-07-13T14:22:24;6.07;;;2.70;;
31724;SDS011;18306;40.960;14.836;2023-07-13T14:24:53;3.67;;;2.20;;
31724;SDS011;18306;40.960;14.836;2023-07-13T14:27:26;7.45;;;2.05;;
31724;SDS011;18306;40.960;14.836;2023-07-13T14:29:53;4.80;;;2.33;;
31724;SDS011;18306;40.960;14.836;2023-07-13T14:32:20;4.45;;;2.65;;
31724;SDS011;18306;40.960;14.836;2023-07-13T14:34:47;4.30;;;2.08;;
31724;SDS011;18306;40.960;14.836;2023-07-13T14:37:14;3.50;;;2.17;;
31724;SDS011;18306;40.960;14.836;2023-07-13T14:39:43;2.53;;;2.30;;
31724;SDS011;18306;40.960;14.836;2023-07-13T14:42:11;3.05;;;2.10;;
31724;SDS011;18306;40.960;14.836;2023-07-13T14:44:38;4.30;;;1.95;;
31724;SDS011;18306;40.960;14.836;2023-07-13T14:47:07;3.72;;;2.60;;
31724;SDS011;18306;40.960;14.836;2023-07-13T14:49:36;2.60;;;2.17;;
31724;SDS011;18306;40.960;14.836;2023-07-13T14:52:11;3.97;;;2.10;;
31724;SDS011;18306;40.960;14.836;2023-07-13T14:54:45;9.75;;;2.60;;
31724;SDS011;18306;40.960;14.836;2023-07-13T14:57:13;9.88;;;3.08;;
31724;SDS011;18306;40.960;14.836;2023-07-13T14:59:42;4.43;;;2.47;;
31724;SDS011;18306;40.960;14.836;2023-07-13T15:02:14;4.07;;;2.67;;
31724;SDS011;18306;40.960;14.836;2023-07-13T15:04:48;5.43;;;2.47;;
31724;SDS011;18306;40.960;14.836;2023-07-13T15:07:15;5.43;;;2.80;;
31724;SDS011;18306;40.960;14.836;2023-07-13T15:09:44;5.28;;;2.13;;
31724;SDS011;18306;40.960;14.836;2023-07-13T15:12:11;3.95;;;2.53;;
31724;SDS011;18306;40.960;14.836;2023-07-13T15:14:39;6.05;;;2.65;;
31724;SDS011;18306;40.960;14.836;2023-07-13T15:17:08;5.05;;;2.92;;
31724;SDS011;18306;40.960;14.836;2023-07-13T15:19:52;6.18;;;2.60;;
31724;SDS011;18306;40.960;14.836;2023-07-13T15:22:19;3.00;;;2.30;;
31724;SDS011;18306;40.960;14.836;2023-07-13T15:24:53;3.40;;;2.65;;
31724;SDS011;18306;40.960;14.836;2023-07-13T15:27:20;4.65;;;2.67;;
31724;SDS011;18306;40.960;14.836;2023-07-13T15:29:47;5.65;;;2.67;;
31724;SDS011;18306;40.960;14.836;2023-07-13T15:32:15;4.35;;;2.47;;
31724;SDS011;18306;40.960;14.836;2023-07-13T15:34:42;5.82;;;2.28;;
31724;SDS011;18306;40.960;14.836;2023-07-13T15:37:17;3.22;;;2.30;;
31724;SDS011;18306;40.960;14.836;2023-07-13T15:39:46;6.20;;;2.47;;
31724;SDS011;18306;40.960;14.836;2023-07-13T15:42:16;6.93;;;2.17;;
31724;SDS011;18306;40.960;14.836;2023-07-13T15:44:46;4.30;;;2.20;;
31724;SDS011;18306;40.960;14.836;2023-07-13T15:47:14;6.70;;;2.58;;
31724;SDS011;18306;40.960;14.836;2023-07-13T15:49:42;2.42;;;2.03;;
31724;SDS011;18306;40.960;14.836;2023-07-13T15:52:13;4.38;;;2.15;;
31724;SDS011;18306;40.960;14.836;2023-07-13T15:54:46;5.35;;;2.88;;
31724;SDS011;18306;40.960;14.836;2023-07-13T15:57:14;2.58;;;2.22;;
31724;SDS011;18306;40.960;14.836;2023-07-13T15:59:42;3.90;;;2.47;;